Terminal Aerodrome Forecast
Issued by NWS Charleston, SC

Home | Current Version | Previous Version | Text Only | Print | Product List | Glossary On
Versions: 1 2 3 4 5 6 7 8 9 10 11 12 13 14 15 16 17 18 19 20 21 22 23 24 25 26 27 28 29 30 31 32 33 34 35 36 37
787
FTUS42 KCHS 242335
TAFCHS
TAF
KCHS 242335Z 2500/2524 VRB03KT P6SM FEW050
     FM250900 00000KT 6SM BR SCT004
      TEMPO 2510/2512 4SM BR
     FM251400 06005KT P6SM SCT250
     FM251800 12006KT P6SM SCT250=

USA.gov is the U.S. government's official web portal to all federal, state and local government web resources and services.